createdAt,value
2019-05-21T00:02:18.614Z,3.58
2019-05-21T00:04:49.245Z,3.95
2019-05-21T00:07:18.432Z,4.53
2019-05-21T00:09:49.292Z,4.95
2019-05-21T00:12:22.565Z,4.70
2019-05-21T00:14:52.759Z,4.55
2019-05-21T00:17:42.824Z,4.80
2019-05-21T00:20:16.747Z,5.45
2019-05-21T00:22:46.939Z,5.30
2019-05-21T00:25:17.430Z,5.87
2019-05-21T00:27:51.234Z,5.92
2019-05-21T00:30:57.173Z,6.22
2019-05-21T00:34:03.049Z,7.33
2019-05-21T00:37:14.261Z,7.67
2019-05-21T00:40:20.393Z,7.22
2019-05-21T00:42:50.839Z,6.95
2019-05-21T00:45:21.031Z,6.30
2019-05-21T00:47:56.799Z,5.62
2019-05-21T00:50:27.070Z,4.85
2019-05-21T00:52:56.784Z,4.60
2019-05-21T00:55:30.154Z,4.55
2019-05-21T00:57:59.905Z,5.22
2019-05-21T01:00:29.112Z,5.30
2019-05-21T01:03:02.644Z,4.08
2019-05-21T01:05:32.353Z,3.02
2019-05-21T01:08:01.534Z,3.20
2019-05-21T01:10:35.584Z,3.17
2019-05-21T01:13:04.922Z,3.52
2019-05-21T01:15:38.507Z,3.50
2019-05-21T01:18:17.346Z,4.03
2019-05-21T01:20:47.954Z,3.75
2019-05-21T01:23:17.268Z,3.62
2019-05-21T01:25:47.200Z,4.50
2019-05-21T01:28:17.457Z,4.15
2019-05-21T01:30:47.789Z,4.25
2019-05-21T01:33:17.689Z,3.83
2019-05-21T01:35:47.406Z,3.30
2019-05-21T01:38:27.892Z,2.17
2019-05-21T01:40:58.869Z,1.87
2019-05-21T01:43:31.000Z,1.80
2019-05-21T01:46:06.873Z,1.60
2019-05-21T01:48:37.094Z,1.77
2019-05-21T01:51:07.916Z,1.50
2019-05-21T01:53:41.465Z,1.35
2019-05-21T01:56:11.568Z,1.32
2019-05-21T01:58:42.213Z,1.32
2019-05-21T02:01:34.943Z,1.42
2019-05-21T02:04:04.601Z,1.65
2019-05-21T02:06:34.713Z,2.05
2019-05-21T02:09:08.647Z,1.70
2019-05-21T02:11:37.985Z,1.67
2019-05-21T02:14:07.968Z,2.10
2019-05-21T02:16:40.796Z,2.17
2019-05-21T02:19:10.859Z,2.35
2019-05-21T02:21:40.341Z,2.90
2019-05-21T02:24:14.219Z,3.55
2019-05-21T02:26:44.166Z,3.83
2019-05-21T02:29:14.339Z,4.72
2019-05-21T02:31:43.865Z,5.28
2019-05-21T02:34:13.573Z,5.22
2019-05-21T02:36:45.879Z,5.37
2019-05-21T02:39:15.069Z,5.75
2019-05-21T02:41:46.324Z,5.80
2019-05-21T02:44:19.841Z,6.80
2019-05-21T02:46:49.917Z,7.35
2019-05-21T02:49:19.284Z,7.53
2019-05-21T02:51:50.065Z,8.08
2019-05-21T02:54:37.293Z,9.60
2019-05-21T02:56:51.223Z,9.50
2019-05-21T02:59:24.238Z,10.98
2019-05-21T03:01:59.874Z,11.50
2019-05-21T03:04:28.994Z,11.08
2019-05-21T03:07:19.457Z,11.55
2019-05-21T03:09:50.613Z,11.50
2019-05-21T03:12:21.814Z,12.00
2019-05-21T03:14:55.321Z,10.88
2019-05-21T03:17:29.334Z,11.25
2019-05-21T03:19:58.909Z,12.35
2019-05-21T03:22:32.801Z,11.45
2019-05-21T03:25:03.605Z,11.18
2019-05-21T03:27:35.833Z,10.48
2019-05-21T03:30:15.120Z,10.53
2019-05-21T03:32:45.754Z,9.80
2019-05-21T03:35:16.461Z,10.05
2019-05-21T03:37:46.160Z,8.95
2019-05-21T03:40:17.016Z,7.80
2019-05-21T03:42:47.024Z,8.60
2019-05-21T03:45:17.634Z,7.72
2019-05-21T03:47:48.002Z,8.25
2019-05-21T03:50:23.536Z,8.15
2019-05-21T03:52:56.967Z,8.40
2019-05-21T03:55:26.439Z,7.37
2019-05-21T03:57:59.417Z,7.85
2019-05-21T04:00:29.565Z,7.45
2019-05-21T04:02:59.548Z,7.53
2019-05-21T04:05:33.979Z,8.10
2019-05-21T04:08:03.852Z,8.18
2019-05-21T04:10:32.969Z,8.63
2019-05-21T04:13:12.075Z,9.55
2019-05-21T04:15:44.017Z,9.83
2019-05-21T04:18:23.849Z,10.78
2019-05-21T04:20:57.709Z,13.00
2019-05-21T04:23:28.861Z,12.28
2019-05-21T04:25:58.022Z,12.07
2019-05-21T04:28:27.138Z,12.63
2019-05-21T04:30:56.577Z,12.10
2019-05-21T04:33:25.603Z,11.48
2019-05-21T04:35:56.113Z,11.78
2019-05-21T04:38:25.545Z,11.33
2019-05-21T04:40:56.245Z,12.95
2019-05-21T04:43:25.463Z,11.55
2019-05-21T04:45:55.005Z,11.60
2019-05-21T04:48:31.355Z,11.73
2019-05-21T04:51:03.435Z,10.72
2019-05-21T04:53:32.749Z,11.03
2019-05-21T04:56:02.220Z,9.93
2019-05-21T04:58:32.217Z,8.65
2019-05-21T05:01:01.489Z,8.93
2019-05-21T05:03:36.787Z,8.38
2019-05-21T05:06:06.651Z,8.40
2019-05-21T05:08:35.636Z,7.37
2019-05-21T05:11:10.153Z,8.05
2019-05-21T05:13:39.387Z,8.63
2019-05-21T05:16:10.012Z,7.50
2019-05-21T05:18:39.080Z,8.50
2019-05-21T05:21:09.381Z,7.75
2019-05-21T05:23:47.292Z,8.33
2019-05-21T05:26:18.234Z,8.50
2019-05-21T05:28:47.693Z,7.58
2019-05-21T05:31:42.332Z,7.10
2019-05-21T05:34:12.771Z,6.55
2019-05-21T05:36:42.202Z,6.72
2019-05-21T05:39:19.435Z,6.78
2019-05-21T05:41:49.617Z,6.30
2019-05-21T05:44:19.217Z,6.08
2019-05-21T05:52:46.258Z,5.95
2019-05-21T05:55:16.060Z,6.25
2019-05-21T05:57:56.983Z,6.90
2019-05-21T06:00:28.709Z,5.83
2019-05-21T06:02:58.649Z,6.40
2019-05-21T06:05:54.418Z,7.60
2019-05-21T06:08:25.073Z,6.70
2019-05-21T06:10:54.404Z,7.22
2019-05-21T06:13:31.324Z,6.85
2019-05-21T06:16:03.374Z,6.87
2019-05-21T06:18:50.772Z,7.28
2019-05-21T06:21:29.902Z,7.45
2019-05-21T06:24:00.064Z,7.42
2019-05-21T06:26:29.170Z,8.68
2019-05-21T06:29:03.503Z,7.97
2019-05-21T06:31:34.353Z,8.68
2019-05-21T06:34:04.366Z,9.50
2019-05-21T06:36:59.758Z,8.88
2019-05-21T06:39:30.435Z,9.13
2019-05-21T06:42:01.007Z,9.48
2019-05-21T06:44:30.033Z,9.88
2019-05-21T06:46:59.529Z,11.68
2019-05-21T06:49:28.585Z,12.20
2019-05-21T06:51:58.599Z,11.97
2019-05-21T06:54:27.718Z,12.55
2019-05-21T06:56:56.811Z,13.08
2019-05-21T06:59:32.459Z,13.40
2019-05-21T07:02:05.530Z,13.88
2019-05-21T07:04:35.788Z,13.88
2019-05-21T07:07:08.986Z,15.20
2019-05-21T07:09:39.560Z,15.85
2019-05-21T07:12:09.622Z,14.60
2019-05-21T07:14:49.761Z,16.27
2019-05-21T07:17:19.223Z,16.50
2019-05-21T07:19:48.238Z,17.07
2019-05-21T07:22:30.921Z,17.65
2019-05-21T07:25:00.508Z,17.15
2019-05-21T07:27:29.902Z,17.40
2019-05-21T07:29:58.994Z,17.52
2019-05-21T07:32:28.305Z,18.65
2019-05-21T07:34:57.647Z,18.42
2019-05-21T07:37:26.654Z,19.90
2019-05-21T07:39:55.649Z,19.77
2019-05-21T07:45:37.577Z,19.80
2019-05-21T07:48:07.071Z,21.25
2019-05-21T07:50:38.109Z,20.75
2019-05-21T07:53:08.143Z,21.10
2019-05-21T07:55:37.488Z,20.08
2019-05-21T07:58:11.673Z,19.00
2019-05-21T08:00:41.960Z,19.27
2019-05-21T08:03:12.350Z,21.15
2019-05-21T08:05:50.562Z,21.07
2019-05-21T08:08:19.802Z,21.00
2019-05-21T08:10:49.662Z,21.12
2019-05-21T08:13:24.813Z,22.70
2019-05-21T08:15:54.879Z,21.90
2019-05-21T08:18:26.435Z,22.17
2019-05-21T08:21:02.752Z,22.00
2019-05-21T08:23:32.572Z,22.48
2019-05-21T08:26:01.683Z,23.90
2019-05-21T08:28:37.857Z,23.18
2019-05-21T08:31:07.947Z,23.87
2019-05-21T08:34:00.312Z,23.65
2019-05-21T08:36:38.572Z,23.35
2019-05-21T08:39:08.927Z,24.10
2019-05-21T08:41:38.974Z,23.67
2019-05-21T08:44:33.521Z,22.67
2019-05-21T08:47:03.832Z,23.02
2019-05-21T08:49:33.490Z,22.93
2019-05-21T08:52:02.820Z,22.65
2019-05-21T08:54:49.572Z,23.35
2019-05-21T08:57:18.884Z,22.55
2019-05-21T08:59:54.695Z,22.35
2019-05-21T09:02:26.426Z,22.58
2019-05-21T09:04:55.999Z,23.15
2019-05-21T09:07:53.191Z,21.15
2019-05-21T09:10:21.027Z,23.67
2019-05-21T09:12:50.173Z,21.87
2019-05-21T09:15:21.112Z,20.75
2019-05-21T09:17:50.853Z,20.80
2019-05-21T09:20:22.037Z,19.95
2019-05-21T09:22:51.116Z,21.93
2019-05-21T09:25:20.313Z,20.97
2019-05-21T09:27:50.717Z,19.98
2019-05-21T09:30:30.517Z,20.77
2019-05-21T09:32:58.647Z,21.40
2019-05-21T09:35:30.346Z,20.43
2019-05-21T09:38:10.592Z,18.90
2019-05-21T09:40:40.478Z,19.98
2019-05-21T09:43:11.850Z,17.82
2019-05-21T09:45:49.540Z,19.12
2019-05-21T09:48:19.534Z,18.60
2019-05-21T09:50:54.141Z,19.52
2019-05-21T09:53:25.132Z,19.25
2019-05-21T09:55:54.115Z,20.62
2019-05-21T09:58:28.751Z,20.80
2019-05-21T10:03:53.905Z,20.82
2019-05-21T10:06:24.585Z,20.62
2019-05-21T10:08:53.771Z,19.35
2019-05-21T10:11:24.752Z,21.12
2019-05-21T10:14:01.636Z,21.25
2019-05-21T10:17:01.113Z,21.75
2019-05-21T10:19:53.191Z,21.35
2019-05-21T10:22:22.778Z,23.35
2019-05-21T10:25:17.064Z,22.90
2019-05-21T10:27:46.408Z,23.32
2019-05-21T10:30:15.907Z,25.25
2019-05-21T10:32:54.587Z,25.65
2019-05-21T10:35:24.581Z,25.35
2019-05-21T10:37:55.635Z,24.95
2019-05-21T10:40:24.989Z,24.32
2019-05-21T10:42:54.053Z,24.12
2019-05-21T10:45:23.981Z,24.52
2019-05-21T10:47:58.597Z,24.85
2019-05-21T10:50:27.908Z,26.23
2019-05-21T10:52:58.243Z,25.62
2019-05-21T10:55:27.301Z,27.70
2019-05-21T10:57:57.340Z,24.37
2019-05-21T11:00:27.912Z,25.10
2019-05-21T11:05:51.481Z,23.45
2019-05-21T11:08:24.088Z,23.60
2019-05-21T11:10:51.711Z,23.35
2019-05-21T11:13:21.220Z,21.97
2019-05-21T11:15:50.175Z,21.45
2019-05-21T11:18:19.484Z,19.85
2019-05-21T11:20:49.025Z,21.10
2019-05-21T11:23:24.913Z,19.25
2019-05-21T11:25:54.889Z,19.50
2019-05-21T11:28:23.827Z,18.15
2019-05-21T11:31:00.082Z,17.70
2019-05-21T11:33:30.045Z,17.40
2019-05-21T11:36:00.678Z,16.05
2019-05-21T11:38:39.886Z,13.98
2019-05-21T11:41:06.961Z,13.98
2019-05-21T11:43:36.978Z,13.85
2019-05-21T11:48:57.641Z,13.62
2019-05-21T11:51:26.982Z,11.55
2019-05-21T11:54:00.542Z,12.00
2019-05-21T11:56:30.792Z,11.68
2019-05-21T11:59:01.539Z,11.55
2019-05-21T12:01:43.564Z,10.55
2019-05-21T12:04:13.496Z,9.88
2019-05-21T12:06:42.136Z,8.28
2019-05-21T12:09:11.116Z,8.83
2019-05-21T12:11:39.659Z,9.13
2019-05-21T12:14:08.369Z,8.45
2019-05-21T12:16:37.012Z,9.03
2019-05-21T12:19:08.231Z,8.63
2019-05-21T12:21:36.004Z,8.50
2019-05-21T12:24:04.680Z,7.67
2019-05-21T12:26:33.214Z,7.62
2019-05-21T12:29:01.801Z,7.33
2019-05-21T12:31:30.606Z,7.55
2019-05-21T12:33:59.190Z,8.05
2019-05-21T12:36:27.809Z,8.30
2019-05-21T12:39:11.596Z,8.18
2019-05-21T12:41:27.039Z,8.73
2019-05-21T12:43:55.871Z,8.98
2019-05-21T12:46:24.507Z,9.53
2019-05-21T12:48:53.071Z,9.45
2019-05-21T12:51:21.627Z,9.50
2019-05-21T12:53:50.511Z,9.23
2019-05-21T12:56:19.126Z,9.35
2019-05-21T12:58:47.773Z,9.38
2019-05-21T13:01:16.348Z,8.68
2019-05-21T13:03:45.157Z,8.60
2019-05-21T13:06:13.864Z,8.20
2019-05-21T13:08:42.427Z,7.70
2019-05-21T13:11:10.995Z,6.90
2019-05-21T13:13:39.588Z,7.53
2019-05-21T13:16:08.271Z,6.83
2019-05-21T13:18:36.857Z,7.30
2019-05-21T13:21:08.424Z,7.80
2019-05-21T13:23:35.835Z,7.40
2019-05-21T13:26:08.280Z,7.92
2019-05-21T13:28:35.138Z,6.90
2019-05-21T13:31:03.847Z,6.92
2019-05-21T13:33:32.395Z,6.53
2019-05-21T13:36:01.331Z,6.22
2019-05-21T13:38:29.876Z,6.22
2019-05-21T13:40:59.272Z,6.92
2019-05-21T13:43:27.995Z,6.80
2019-05-21T13:45:56.610Z,6.28
2019-05-21T13:48:25.576Z,6.85
2019-05-21T13:50:54.130Z,5.97
2019-05-21T13:53:22.661Z,6.35
2019-05-21T13:55:51.637Z,6.17
2019-05-21T13:58:20.164Z,6.05
2019-05-21T14:00:50.599Z,5.62
2019-05-21T14:03:19.339Z,5.28
2019-05-21T14:05:48.323Z,5.00
2019-05-21T14:08:16.860Z,5.25
2019-05-21T14:10:45.874Z,5.85
2019-05-21T14:13:14.597Z,4.90
2019-05-21T14:15:43.474Z,4.97
2019-05-21T14:18:12.114Z,5.58
2019-05-21T14:20:40.576Z,5.42
2019-05-21T14:23:09.321Z,5.03
2019-05-21T14:25:38.032Z,4.67
2019-05-21T14:28:06.647Z,5.10
2019-05-21T14:30:36.406Z,4.90
2019-05-21T14:33:05.075Z,4.62
2019-05-21T14:35:33.699Z,4.65
2019-05-21T14:38:02.263Z,4.28
2019-05-21T14:40:32.841Z,4.35
2019-05-21T14:43:01.815Z,3.92
2019-05-21T14:45:33.940Z,4.05
2019-05-21T14:48:01.163Z,3.65
2019-05-21T14:50:29.833Z,3.77
2019-05-21T14:52:58.359Z,3.22
2019-05-21T14:55:27.005Z,3.37
2019-05-21T14:57:58.723Z,2.90
2019-05-21T15:00:32.009Z,3.20
2019-05-21T15:03:00.646Z,3.27
2019-05-21T15:05:29.283Z,3.58
2019-05-21T15:07:59.137Z,2.90
2019-05-21T15:10:27.897Z,3.27
2019-05-21T15:12:56.848Z,3.20
2019-05-21T15:15:25.607Z,3.08
2019-05-21T15:17:54.254Z,3.72
2019-05-21T15:20:42.516Z,3.65
2019-05-21T15:23:11.083Z,3.33
2019-05-21T15:25:39.629Z,3.27
2019-05-21T15:28:08.521Z,2.90
2019-05-21T15:30:37.200Z,2.85
2019-05-21T15:33:05.828Z,2.90
2019-05-21T15:35:34.544Z,2.65
2019-05-21T15:38:22.721Z,2.72
2019-05-21T15:41:08.591Z,2.83
2019-05-21T15:43:21.612Z,2.70
2019-05-21T15:45:50.171Z,2.58
2019-05-21T15:48:18.783Z,2.72
2019-05-21T15:50:47.332Z,2.72
2019-05-21T15:53:15.970Z,2.35
2019-05-21T15:55:44.518Z,2.35
2019-05-21T15:58:13.178Z,2.08
2019-05-21T16:00:42.221Z,2.45
2019-05-21T16:03:11.217Z,2.30
2019-05-21T16:05:39.825Z,2.42
2019-05-21T16:08:08.353Z,3.22
2019-05-21T16:10:36.882Z,4.05
2019-05-21T16:13:05.568Z,4.85
2019-05-21T16:15:34.411Z,5.80
2019-05-21T16:18:03.048Z,6.10
2019-05-21T16:20:31.582Z,6.58
2019-05-21T16:23:00.135Z,8.03
2019-05-21T16:25:28.973Z,8.30
2019-05-21T16:27:57.855Z,9.00
2019-05-21T16:30:26.471Z,10.03
2019-05-21T16:32:55.172Z,9.88
2019-05-21T16:35:24.117Z,10.48
2019-05-21T16:37:52.735Z,11.45
2019-05-21T16:40:21.795Z,10.55
2019-05-21T16:42:50.435Z,11.30
2019-05-21T16:45:19.250Z,11.88
2019-05-21T16:47:47.954Z,11.38
2019-05-21T16:50:16.744Z,11.53
2019-05-21T16:52:45.870Z,12.00
2019-05-21T16:55:14.559Z,12.75
2019-05-21T16:57:43.221Z,11.25
2019-05-21T17:00:15.579Z,12.35
2019-05-21T17:02:44.546Z,12.28
2019-05-21T17:05:14.615Z,12.60
2019-05-21T17:07:43.301Z,12.20
2019-05-21T17:10:14.370Z,11.80
2019-05-21T17:12:43.055Z,12.23
2019-05-21T17:15:13.842Z,12.35
2019-05-21T17:17:42.475Z,12.55
2019-05-21T17:20:11.820Z,12.40
2019-05-21T17:22:40.386Z,12.75
2019-05-21T17:25:09.908Z,12.73
2019-05-21T17:27:38.582Z,12.73
2019-05-21T17:30:08.911Z,12.33
2019-05-21T17:32:37.922Z,12.20
2019-05-21T17:35:07.736Z,12.80
2019-05-21T17:37:57.131Z,13.40
2019-05-21T17:40:25.811Z,13.38
2019-05-21T17:42:54.319Z,13.62
2019-05-21T17:45:23.311Z,14.23
2019-05-21T17:47:52.061Z,13.75
2019-05-21T17:50:21.027Z,13.65
2019-05-21T17:52:49.575Z,13.75
2019-05-21T17:55:18.262Z,13.68
2019-05-21T17:57:46.867Z,14.83
2019-05-21T18:00:19.319Z,14.70
2019-05-21T18:02:47.982Z,14.60
2019-05-21T18:05:17.469Z,14.40
2019-05-21T18:07:46.108Z,14.40
2019-05-21T18:10:16.753Z,15.28
2019-05-21T18:12:45.583Z,14.45
2019-05-21T18:15:35.155Z,16.07
2019-05-21T18:18:05.085Z,15.40
2019-05-21T18:20:35.078Z,15.90
2019-05-21T18:23:03.637Z,16.48
2019-05-21T18:25:32.379Z,16.67
2019-05-21T18:28:00.926Z,16.70
2019-05-21T18:30:29.914Z,16.82
2019-05-21T18:32:59.087Z,17.00
2019-05-21T18:35:27.709Z,16.48
2019-05-21T18:37:56.360Z,17.00
2019-05-21T18:40:24.932Z,16.62
2019-05-21T18:42:53.473Z,17.27
2019-05-21T18:45:22.119Z,17.75
2019-05-21T18:47:51.508Z,17.55
2019-05-21T18:50:35.488Z,17.98
2019-05-21T18:52:54.022Z,17.82
2019-05-21T18:55:23.474Z,18.52
2019-05-21T18:57:55.170Z,17.98
2019-05-21T19:00:24.725Z,19.55
2019-05-21T19:02:53.267Z,18.82
2019-05-21T19:05:21.825Z,18.73
2019-05-21T19:07:50.374Z,20.15
2019-05-21T19:10:19.083Z,18.05
2019-05-21T19:12:47.705Z,18.85
2019-05-21T19:15:16.644Z,19.00
2019-05-21T19:17:45.867Z,18.17
2019-05-21T19:20:15.065Z,18.82
2019-05-21T19:22:43.955Z,17.07
2019-05-21T19:25:12.666Z,17.75
2019-05-21T19:27:41.351Z,17.67
2019-05-21T19:30:10.732Z,18.00
2019-05-21T19:32:39.432Z,17.75
2019-05-21T19:35:08.595Z,18.52
2019-05-21T19:37:37.329Z,17.48
2019-05-21T19:40:07.415Z,16.67
2019-05-21T19:42:36.421Z,16.57
2019-05-21T19:45:07.160Z,17.30
2019-05-21T19:47:37.430Z,17.40
2019-05-21T19:50:12.145Z,16.70
2019-05-21T19:52:41.933Z,17.25
2019-05-21T19:55:13.318Z,15.53
2019-05-21T19:57:54.943Z,16.40
2019-05-21T20:00:27.452Z,16.75
2019-05-21T20:02:57.306Z,16.75
2019-05-21T20:05:32.601Z,16.02
2019-05-21T20:08:03.259Z,16.95
2019-05-21T20:10:34.181Z,16.30
2019-05-21T20:13:08.081Z,16.10
2019-05-21T20:15:39.717Z,16.90
2019-05-21T20:18:10.194Z,16.75
2019-05-21T20:20:46.157Z,17.48
2019-05-21T20:23:18.248Z,17.87
2019-05-21T20:25:56.391Z,17.45
2019-05-21T20:28:45.465Z,18.10
2019-05-21T20:31:15.535Z,17.10
2019-05-21T20:33:47.197Z,17.40
2019-05-21T20:36:21.849Z,17.95
2019-05-21T20:38:52.125Z,17.12
2019-05-21T20:41:23.254Z,17.15
2019-05-21T20:43:59.977Z,18.20
2019-05-21T20:46:30.107Z,17.52
2019-05-21T20:49:01.180Z,17.57
2019-05-21T20:51:36.536Z,17.12
2019-05-21T20:54:09.598Z,17.40
2019-05-21T20:56:39.461Z,19.00
2019-05-21T20:59:15.923Z,17.45
2019-05-21T21:04:15.139Z,17.42
2019-05-21T21:07:08.601Z,18.12
2019-05-21T21:09:58.072Z,16.85
2019-05-21T21:12:28.086Z,17.52
2019-05-21T21:15:24.688Z,18.07
2019-05-21T21:17:55.385Z,18.50
2019-05-21T21:20:24.603Z,18.37
2019-05-21T21:23:07.004Z,19.62
2019-05-21T21:25:38.195Z,20.35
2019-05-21T21:28:08.083Z,20.15
2019-05-21T21:30:47.677Z,19.52
2019-05-21T21:33:18.273Z,19.82
2019-05-21T21:35:47.714Z,20.55
2019-05-21T21:38:39.115Z,20.37
2019-05-21T21:41:14.513Z,20.10
2019-05-21T21:43:44.644Z,19.02
2019-05-21T21:46:14.350Z,19.62
2019-05-21T21:48:50.968Z,20.32
2019-05-21T21:51:21.350Z,19.23
2019-05-21T21:53:50.630Z,20.20
2019-05-21T21:56:22.822Z,19.95
2019-05-21T21:58:52.702Z,19.70
2019-05-21T22:01:29.455Z,20.77
2019-05-21T22:04:06.298Z,21.20
2019-05-21T22:06:38.571Z,20.82
2019-05-21T22:09:11.982Z,20.25
2019-05-21T22:12:05.624Z,20.10
2019-05-21T22:14:56.647Z,20.77
2019-05-21T22:17:26.858Z,21.37
2019-05-21T22:20:17.702Z,21.60
2019-05-21T22:22:48.878Z,20.97
2019-05-21T22:25:19.004Z,21.10
2019-05-21T22:27:51.195Z,20.65
2019-05-21T22:30:22.204Z,20.85
2019-05-21T22:32:52.312Z,20.37
2019-05-21T22:35:22.317Z,21.33
2019-05-21T22:38:17.055Z,21.07
2019-05-21T22:40:46.661Z,21.37
2019-05-21T22:43:16.273Z,20.77
2019-05-21T22:45:46.672Z,22.22
2019-05-21T22:48:17.081Z,22.37
2019-05-21T22:50:50.983Z,20.55
2019-05-21T22:53:20.511Z,21.60
2019-05-21T22:55:49.638Z,21.65
2019-05-21T22:58:24.310Z,20.45
2019-05-21T23:00:54.487Z,21.33
2019-05-21T23:03:24.823Z,21.60
2019-05-21T23:06:01.041Z,20.60
2019-05-21T23:08:32.041Z,21.10
2019-05-21T23:11:02.244Z,20.97
2019-05-21T23:13:38.659Z,20.25
2019-05-21T23:16:10.226Z,19.87
2019-05-21T23:18:40.670Z,20.02
2019-05-21T23:21:20.100Z,20.65
2019-05-21T23:23:50.929Z,19.42
2019-05-21T23:26:20.952Z,20.55
2019-05-21T23:28:57.104Z,20.30
2019-05-21T23:31:27.482Z,19.67
2019-05-21T23:34:18.984Z,19.70
2019-05-21T23:36:54.647Z,20.17
2019-05-21T23:39:26.061Z,18.87
2019-05-21T23:41:55.887Z,19.77
2019-05-21T23:44:32.522Z,20.15
2019-05-21T23:47:02.769Z,20.40
2019-05-21T23:49:31.953Z,20.80
2019-05-21T23:52:07.584Z,20.88
2019-05-21T23:54:39.265Z,20.65
2019-05-21T23:57:10.053Z,19.73
2019-05-21T23:59:43.295Z,20.20
